sensor_id;sensor_type;location;lat;lon;timestamp;pressure;altitude;pressure_sealevel;temperature;humidity
67803;BME280;54601;51.378;-1.342;2023-02-19T00:01:51;100973.44;;;20.52;38.28
67803;BME280;54601;51.378;-1.342;2023-02-19T00:04:17;100964.13;;;20.69;37.82
67803;BME280;54601;51.378;-1.342;2023-02-19T00:06:41;100961.88;;;20.81;37.55
67803;BME280;54601;51.378;-1.342;2023-02-19T00:09:05;100965.14;;;20.65;37.42
67803;BME280;54601;51.378;-1.342;2023-02-19T00:11:34;100965.09;;;20.62;37.75
67803;BME280;54601;51.378;-1.342;2023-02-19T00:13:56;100966.67;;;20.46;37.38
67803;BME280;54601;51.378;-1.342;2023-02-19T00:16:23;100968.47;;;20.97;37.58
67803;BME280;54601;51.378;-1.342;2023-02-19T00:18:46;100976.65;;;20.64;37.63
67803;BME280;54601;51.378;-1.342;2023-02-19T00:21:10;100983.16;;;20.89;37.33
67803;BME280;54601;51.378;-1.342;2023-02-19T00:23:36;100994.37;;;20.69;37.33
67803;BME280;54601;51.378;-1.342;2023-02-19T00:26:01;101004.95;;;20.74;37.37
67803;BME280;54601;51.378;-1.342;2023-02-19T00:28:25;101008.56;;;20.64;37.37
67803;BME280;54601;51.378;-1.342;2023-02-19T00:30:51;101009.71;;;20.21;37.95
67803;BME280;54601;51.378;-1.342;2023-02-19T00:33:16;101008.05;;;20.50;37.61
67803;BME280;54601;51.378;-1.342;2023-02-19T00:35:41;101009.89;;;20.66;37.50
67803;BME280;54601;51.378;-1.342;2023-02-19T00:38:06;101020.89;;;20.39;37.67
67803;BME280;54601;51.378;-1.342;2023-02-19T00:40:31;101021.39;;;20.63;37.40
67803;BME280;54601;51.378;-1.342;2023-02-19T00:42:57;101018.34;;;20.82;37.51
67803;BME280;54601;51.378;-1.342;2023-02-19T00:45:21;101012.90;;;21.07;37.29
67803;BME280;54601;51.378;-1.342;2023-02-19T00:47:47;101006.93;;;21.03;37.58
67803;BME280;54601;51.378;-1.342;2023-02-19T00:50:12;101007.72;;;20.83;37.51
67803;BME280;54601;51.378;-1.342;2023-02-19T00:52:37;101008.44;;;20.56;37.53
67803;BME280;54601;51.378;-1.342;2023-02-19T00:55:02;101017.95;;;20.31;37.47
67803;BME280;54601;51.378;-1.342;2023-02-19T00:57:27;101014.55;;;20.66;37.85
67803;BME280;54601;51.378;-1.342;2023-02-19T00:59:52;101009.04;;;20.66;37.66
67803;BME280;54601;51.378;-1.342;2023-02-19T01:02:17;101011.77;;;20.31;37.79
67803;BME280;54601;51.378;-1.342;2023-02-19T01:04:42;101016.03;;;20.54;37.83
67803;BME280;54601;51.378;-1.342;2023-02-19T01:07:08;101020.46;;;20.91;37.67
67803;BME280;54601;51.378;-1.342;2023-02-19T01:09:33;101029.60;;;20.59;37.68
67803;BME280;54601;51.378;-1.342;2023-02-19T01:11:58;101035.43;;;20.82;37.63
67803;BME280;54601;51.378;-1.342;2023-02-19T01:14:23;101036.88;;;20.63;37.47
67803;BME280;54601;51.378;-1.342;2023-02-19T01:16:48;101041.06;;;20.65;37.54
67803;BME280;54601;51.378;-1.342;2023-02-19T01:19:13;101044.38;;;20.35;37.67
67803;BME280;54601;51.378;-1.342;2023-02-19T01:21:39;101043.23;;;20.40;37.50
67803;BME280;54601;51.378;-1.342;2023-02-19T01:24:04;101037.40;;;20.72;37.40
67803;BME280;54601;51.378;-1.342;2023-02-19T01:26:30;101037.49;;;20.29;37.59
67803;BME280;54601;51.378;-1.342;2023-02-19T01:28:54;101045.48;;;20.32;37.51
67803;BME280;54601;51.378;-1.342;2023-02-19T01:31:21;101042.83;;;20.28;37.49
67803;BME280;54601;51.378;-1.342;2023-02-19T01:33:45;101037.93;;;20.94;37.27
67803;BME280;54601;51.378;-1.342;2023-02-19T01:36:09;101039.77;;;20.76;37.36
67803;BME280;54601;51.378;-1.342;2023-02-19T01:38:35;101042.87;;;20.59;37.24
67803;BME280;54601;51.378;-1.342;2023-02-19T01:41:03;101046.98;;;20.30;37.33
67803;BME280;54601;51.378;-1.342;2023-02-19T01:43:25;101046.50;;;20.30;37.38
67803;BME280;54601;51.378;-1.342;2023-02-19T01:45:50;101043.22;;;20.77;37.31
67803;BME280;54601;51.378;-1.342;2023-02-19T01:48:18;101041.00;;;20.67;37.28
67803;BME280;54601;51.378;-1.342;2023-02-19T01:50:43;101040.29;;;20.28;37.44
67803;BME280;54601;51.378;-1.342;2023-02-19T01:53:07;101037.05;;;20.57;37.25
67803;BME280;54601;51.378;-1.342;2023-02-19T01:55:31;101033.64;;;20.51;37.09
67803;BME280;54601;51.378;-1.342;2023-02-19T01:57:56;101034.40;;;20.31;37.31
67803;BME280;54601;51.378;-1.342;2023-02-19T02:00:21;101035.86;;;20.65;37.09
67803;BME280;54601;51.378;-1.342;2023-02-19T02:02:49;101041.86;;;20.10;37.40
67803;BME280;54601;51.378;-1.342;2023-02-19T02:05:18;101049.55;;;20.65;37.13
67803;BME280;54601;51.378;-1.342;2023-02-19T02:07:37;101054.89;;;20.11;37.24
67803;BME280;54601;51.378;-1.342;2023-02-19T02:10:02;101053.37;;;20.53;37.29
67803;BME280;54601;51.378;-1.342;2023-02-19T02:12:27;101049.38;;;20.17;37.52
67803;BME280;54601;51.378;-1.342;2023-02-19T02:14:52;101051.10;;;20.10;37.57
67803;BME280;54601;51.378;-1.342;2023-02-19T02:17:23;101053.43;;;20.25;37.18
67803;BME280;54601;51.378;-1.342;2023-02-19T02:19:59;101060.54;;;20.00;37.30
67803;BME280;54601;51.378;-1.342;2023-02-19T02:22:12;101064.22;;;20.33;37.41
67803;BME280;54601;51.378;-1.342;2023-02-19T02:24:49;101062.23;;;20.33;37.43
67803;BME280;54601;51.378;-1.342;2023-02-19T02:31:50;101068.68;;;20.33;37.00
67803;BME280;54601;51.378;-1.342;2023-02-19T02:34:16;101070.15;;;20.33;36.76
67803;BME280;54601;51.378;-1.342;2023-02-19T02:36:41;101075.38;;;20.51;36.80
67803;BME280;54601;51.378;-1.342;2023-02-19T02:39:07;101075.81;;;20.28;37.25
67803;BME280;54601;51.378;-1.342;2023-02-19T02:41:28;101078.24;;;20.19;36.80
67803;BME280;54601;51.378;-1.342;2023-02-19T02:43:54;101077.44;;;20.16;37.10
67803;BME280;54601;51.378;-1.342;2023-02-19T02:46:22;101067.39;;;20.40;36.97
67803;BME280;54601;51.378;-1.342;2023-02-19T02:48:47;101066.41;;;20.14;36.97
67803;BME280;54601;51.378;-1.342;2023-02-19T02:51:14;101067.13;;;20.04;36.83
67803;BME280;54601;51.378;-1.342;2023-02-19T02:53:37;101070.17;;;20.06;36.98
67803;BME280;54601;51.378;-1.342;2023-02-19T02:56:00;101069.30;;;20.16;37.24
67803;BME280;54601;51.378;-1.342;2023-02-19T02:58:26;101074.40;;;20.23;36.84
67803;BME280;54601;51.378;-1.342;2023-02-19T03:00:53;101071.88;;;20.11;36.67
67803;BME280;54601;51.378;-1.342;2023-02-19T03:03:18;101069.00;;;20.16;36.88
67803;BME280;54601;51.378;-1.342;2023-02-19T03:05:40;101072.40;;;20.06;36.79
67803;BME280;54601;51.378;-1.342;2023-02-19T03:08:09;101078.02;;;20.39;36.77
67803;BME280;54601;51.378;-1.342;2023-02-19T03:10:34;101067.69;;;20.24;36.55
67803;BME280;54601;51.378;-1.342;2023-02-19T03:12:58;101069.34;;;20.18;36.66
67803;BME280;54601;51.378;-1.342;2023-02-19T03:15:21;101078.28;;;20.24;36.51
67803;BME280;54601;51.378;-1.342;2023-02-19T03:17:49;101088.35;;;20.23;36.46
67803;BME280;54601;51.378;-1.342;2023-02-19T03:20:13;101093.71;;;20.53;36.39
67803;BME280;54601;51.378;-1.342;2023-02-19T03:22:37;101089.95;;;20.00;36.48
67803;BME280;54601;51.378;-1.342;2023-02-19T03:25:06;101086.65;;;20.23;36.63
67803;BME280;54601;51.378;-1.342;2023-02-19T03:27:27;101081.76;;;20.31;36.53
67803;BME280;54601;51.378;-1.342;2023-02-19T03:29:53;101088.67;;;20.36;36.51
67803;BME280;54601;51.378;-1.342;2023-02-19T03:32:22;101098.90;;;20.28;36.52
67803;BME280;54601;51.378;-1.342;2023-02-19T03:34:46;101107.95;;;20.34;36.48
67803;BME280;54601;51.378;-1.342;2023-02-19T03:37:10;101113.90;;;20.40;36.38
67803;BME280;54601;51.378;-1.342;2023-02-19T03:39:32;101116.13;;;20.04;36.56
67803;BME280;54601;51.378;-1.342;2023-02-19T03:42:03;101116.76;;;20.35;36.44
67803;BME280;54601;51.378;-1.342;2023-02-19T03:44:29;101119.89;;;19.94;36.25
67803;BME280;54601;51.378;-1.342;2023-02-19T03:46:54;101121.09;;;20.30;36.41
67803;BME280;54601;51.378;-1.342;2023-02-19T03:49:20;101116.07;;;20.00;36.40
67803;BME280;54601;51.378;-1.342;2023-02-19T03:51:43;101108.40;;;20.28;36.24
67803;BME280;54601;51.378;-1.342;2023-02-19T03:54:11;101114.05;;;20.22;36.21
67803;BME280;54601;51.378;-1.342;2023-02-19T03:56:33;101122.30;;;20.25;36.32
67803;BME280;54601;51.378;-1.342;2023-02-19T03:58:57;101139.31;;;20.28;36.32
67803;BME280;54601;51.378;-1.342;2023-02-19T04:01:24;101149.00;;;19.88;36.48
67803;BME280;54601;51.378;-1.342;2023-02-19T04:03:47;101147.77;;;20.32;36.23
67803;BME280;54601;51.378;-1.342;2023-02-19T04:06:12;101147.83;;;20.16;36.33
67803;BME280;54601;51.378;-1.342;2023-02-19T04:08:36;101148.29;;;19.96;36.29
67803;BME280;54601;51.378;-1.342;2023-02-19T04:11:01;101142.17;;;20.20;36.16
67803;BME280;54601;51.378;-1.342;2023-02-19T04:13:28;101148.59;;;20.14;36.14
67803;BME280;54601;51.378;-1.342;2023-02-19T04:15:52;101155.64;;;19.71;36.26
67803;BME280;54601;51.378;-1.342;2023-02-19T04:18:18;101149.21;;;19.81;36.00
67803;BME280;54601;51.378;-1.342;2023-02-19T04:20:43;101157.37;;;19.84;36.21
67803;BME280;54601;51.378;-1.342;2023-02-19T04:23:06;101157.28;;;20.08;36.20
67803;BME280;54601;51.378;-1.342;2023-02-19T04:25:32;101163.53;;;19.52;36.25
67803;BME280;54601;51.378;-1.342;2023-02-19T04:27:57;101159.07;;;19.71;36.54
67803;BME280;54601;51.378;-1.342;2023-02-19T04:30:22;101165.75;;;19.90;36.31
67803;BME280;54601;51.378;-1.342;2023-02-19T04:32:47;101168.33;;;19.61;36.40
67803;BME280;54601;51.378;-1.342;2023-02-19T04:35:12;101171.70;;;20.06;36.15
67803;BME280;54601;51.378;-1.342;2023-02-19T04:37:37;101176.01;;;19.96;36.21
67803;BME280;54601;51.378;-1.342;2023-02-19T04:40:03;101179.55;;;20.04;36.08
67803;BME280;54601;51.378;-1.342;2023-02-19T04:42:28;101184.18;;;19.94;36.06
67803;BME280;54601;51.378;-1.342;2023-02-19T04:44:53;101188.09;;;19.97;36.04
67803;BME280;54601;51.378;-1.342;2023-02-19T04:47:18;101186.06;;;19.79;36.27
67803;BME280;54601;51.378;-1.342;2023-02-19T04:49:44;101183.70;;;19.99;36.07
67803;BME280;54601;51.378;-1.342;2023-02-19T04:52:09;101185.47;;;20.09;35.86
67803;BME280;54601;51.378;-1.342;2023-02-19T04:54:34;101184.82;;;19.71;36.16
67803;BME280;54601;51.378;-1.342;2023-02-19T04:56:59;101184.93;;;19.81;36.21
67803;BME280;54601;51.378;-1.342;2023-02-19T04:59:24;101189.29;;;19.89;36.04
67803;BME280;54601;51.378;-1.342;2023-02-19T05:01:49;101196.78;;;19.86;36.08
67803;BME280;54601;51.378;-1.342;2023-02-19T05:04:15;101204.89;;;19.77;36.18
67803;BME280;54601;51.378;-1.342;2023-02-19T05:06:40;101206.99;;;19.99;35.91
67803;BME280;54601;51.378;-1.342;2023-02-19T05:09:05;101207.06;;;19.72;35.98
67803;BME280;54601;51.378;-1.342;2023-02-19T05:11:30;101212.60;;;19.87;35.96
67803;BME280;54601;51.378;-1.342;2023-02-19T05:13:55;101208.21;;;19.83;36.00
67803;BME280;54601;51.378;-1.342;2023-02-19T05:16:21;101213.05;;;19.99;36.01
67803;BME280;54601;51.378;-1.342;2023-02-19T05:18:46;101213.00;;;19.54;36.05
67803;BME280;54601;51.378;-1.342;2023-02-19T05:21:12;101215.85;;;19.70;36.09
67803;BME280;54601;51.378;-1.342;2023-02-19T05:23:36;101214.01;;;19.74;36.12
67803;BME280;54601;51.378;-1.342;2023-02-19T05:26:04;101214.40;;;19.65;36.11
67803;BME280;54601;51.378;-1.342;2023-02-19T05:28:27;101216.87;;;19.72;36.11
67803;BME280;54601;51.378;-1.342;2023-02-19T05:30:52;101214.55;;;19.77;35.77
67803;BME280;54601;51.378;-1.342;2023-02-19T05:33:18;101222.36;;;19.41;35.82
67803;BME280;54601;51.378;-1.342;2023-02-19T05:35:45;101229.33;;;19.97;35.53
67803;BME280;54601;51.378;-1.342;2023-02-19T05:38:08;101231.68;;;19.17;36.16
67803;BME280;54601;51.378;-1.342;2023-02-19T05:40:33;101243.26;;;19.13;36.00
67803;BME280;54601;51.378;-1.342;2023-02-19T05:42:58;101248.71;;;19.48;36.04
67803;BME280;54601;51.378;-1.342;2023-02-19T05:45:24;101254.06;;;19.66;35.80
67803;BME280;54601;51.378;-1.342;2023-02-19T05:47:49;101248.85;;;19.35;36.11
67803;BME280;54601;51.378;-1.342;2023-02-19T05:50:14;101245.65;;;19.38;35.66
67803;BME280;54601;51.378;-1.342;2023-02-19T05:52:39;101248.12;;;19.28;36.21
67803;BME280;54601;51.378;-1.342;2023-02-19T05:55:05;101240.96;;;19.42;35.94
67803;BME280;54601;51.378;-1.342;2023-02-19T05:57:29;101235.15;;;19.53;35.65
67803;BME280;54601;51.378;-1.342;2023-02-19T05:59:55;101236.86;;;19.13;36.22
67803;BME280;54601;51.378;-1.342;2023-02-19T06:02:20;101239.42;;;19.20;35.64
67803;BME280;54601;51.378;-1.342;2023-02-19T06:04:45;101250.35;;;19.00;35.88
67803;BME280;54601;51.378;-1.342;2023-02-19T06:07:10;101256.77;;;19.08;36.16
67803;BME280;54601;51.378;-1.342;2023-02-19T06:09:35;101252.05;;;18.85;36.19
67803;BME280;54601;51.378;-1.342;2023-02-19T06:12:00;101255.81;;;19.15;36.00
67803;BME280;54601;51.378;-1.342;2023-02-19T06:14:26;101257.77;;;19.12;35.94
67803;BME280;54601;51.378;-1.342;2023-02-19T06:16:51;101263.79;;;19.12;35.88
67803;BME280;54601;51.378;-1.342;2023-02-19T06:19:16;101272.09;;;19.03;36.04
67803;BME280;54601;51.378;-1.342;2023-02-19T06:21:41;101268.44;;;19.16;35.56
67803;BME280;54601;51.378;-1.342;2023-02-19T06:24:08;101268.91;;;19.01;35.84
67803;BME280;54601;51.378;-1.342;2023-02-19T06:26:32;101271.84;;;19.42;35.56
67803;BME280;54601;51.378;-1.342;2023-02-19T06:28:57;101278.36;;;18.96;35.85
67803;BME280;54601;51.378;-1.342;2023-02-19T06:31:22;101277.34;;;19.11;35.69
67803;BME280;54601;51.378;-1.342;2023-02-19T06:33:47;101285.15;;;19.28;35.72
67803;BME280;54601;51.378;-1.342;2023-02-19T06:36:14;101296.14;;;18.92;35.88
67803;BME280;54601;51.378;-1.342;2023-02-19T06:38:38;101300.82;;;19.26;35.77
67803;BME280;54601;51.378;-1.342;2023-02-19T06:41:04;101291.76;;;19.36;35.84
67803;BME280;54601;51.378;-1.342;2023-02-19T06:43:29;101289.51;;;19.27;35.74
67803;BME280;54601;51.378;-1.342;2023-02-19T06:45:53;101287.86;;;18.90;35.90
67803;BME280;54601;51.378;-1.342;2023-02-19T06:48:19;101288.80;;;19.06;35.72
67803;BME280;54601;51.378;-1.342;2023-02-19T06:50:44;101292.00;;;18.98;35.83
67803;BME280;54601;51.378;-1.342;2023-02-19T06:53:09;101290.02;;;19.24;35.79
67803;BME280;54601;51.378;-1.342;2023-02-19T06:55:34;101285.29;;;19.35;35.82
67803;BME280;54601;51.378;-1.342;2023-02-19T06:57:59;101284.03;;;19.14;35.65
67803;BME280;54601;51.378;-1.342;2023-02-19T07:00:25;101281.17;;;19.66;35.43
67803;BME280;54601;51.378;-1.342;2023-02-19T07:02:50;101279.09;;;19.22;35.70
67803;BME280;54601;51.378;-1.342;2023-02-19T07:05:15;101298.69;;;19.59;35.19
67803;BME280;54601;51.378;-1.342;2023-02-19T07:07:40;101316.70;;;19.52;35.39
67803;BME280;54601;51.378;-1.342;2023-02-19T07:10:06;101337.55;;;19.83;35.06
67803;BME280;54601;51.378;-1.342;2023-02-19T07:12:31;101340.45;;;19.71;35.10
67803;BME280;54601;51.378;-1.342;2023-02-19T07:14:56;101335.13;;;19.66;35.16
67803;BME280;54601;51.378;-1.342;2023-02-19T07:17:21;101325.22;;;19.51;35.38
67803;BME280;54601;51.378;-1.342;2023-02-19T07:19:46;101319.76;;;19.15;35.88
67803;BME280;54601;51.378;-1.342;2023-02-19T07:22:11;101319.78;;;19.53;35.61
67803;BME280;54601;51.378;-1.342;2023-02-19T07:24:37;101327.46;;;19.87;35.52
67803;BME280;54601;51.378;-1.342;2023-02-19T07:27:02;101336.42;;;19.56;35.65
67803;BME280;54601;51.378;-1.342;2023-02-19T07:29:27;101341.65;;;19.70;35.75
67803;BME280;54601;51.378;-1.342;2023-02-19T07:31:52;101336.39;;;19.86;35.61
67803;BME280;54601;51.378;-1.342;2023-02-19T07:34:18;101343.05;;;19.84;35.58
67803;BME280;54601;51.378;-1.342;2023-02-19T07:36:43;101336.34;;;19.73;35.45
67803;BME280;54601;51.378;-1.342;2023-02-19T07:39:11;101337.03;;;19.80;35.18
67803;BME280;54601;51.378;-1.342;2023-02-19T07:41:33;101340.00;;;20.11;35.27
67803;BME280;54601;51.378;-1.342;2023-02-19T07:43:59;101337.30;;;19.82;35.28
67803;BME280;54601;51.378;-1.342;2023-02-19T07:46:24;101337.66;;;19.41;35.87
67803;BME280;54601;51.378;-1.342;2023-02-19T07:48:49;101337.49;;;19.73;35.51
67803;BME280;54601;51.378;-1.342;2023-02-19T07:51:17;101346.62;;;20.11;35.52
67803;BME280;54601;51.378;-1.342;2023-02-19T07:53:39;101351.74;;;19.80;35.48
67803;BME280;54601;51.378;-1.342;2023-02-19T07:56:06;101354.70;;;19.76;35.47
67803;BME280;54601;51.378;-1.342;2023-02-19T07:58:30;101360.86;;;19.71;35.27
67803;BME280;54601;51.378;-1.342;2023-02-19T08:00:55;101366.87;;;19.87;35.17
67803;BME280;54601;51.378;-1.342;2023-02-19T08:03:20;101363.06;;;19.69;35.48
67803;BME280;54601;51.378;-1.342;2023-02-19T08:05:46;101359.42;;;20.16;35.03
67803;BME280;54601;51.378;-1.342;2023-02-19T08:08:12;101372.24;;;18.92;37.02
67803;BME280;54601;51.378;-1.342;2023-02-19T08:10:36;101378.50;;;19.54;36.43
67803;BME280;54601;51.378;-1.342;2023-02-19T08:13:01;101379.01;;;19.02;36.86
67803;BME280;54601;51.378;-1.342;2023-02-19T08:15:26;101392.00;;;20.24;36.13
67803;BME280;54601;51.378;-1.342;2023-02-19T08:17:52;101395.05;;;19.65;35.97
67803;BME280;54601;51.378;-1.342;2023-02-19T08:20:17;101397.74;;;19.93;35.57
67803;BME280;54601;51.378;-1.342;2023-02-19T08:22:42;101399.51;;;20.18;34.88
67803;BME280;54601;51.378;-1.342;2023-02-19T08:25:08;101403.76;;;20.19;34.73
67803;BME280;54601;51.378;-1.342;2023-02-19T08:27:32;101405.38;;;20.26;34.54
67803;BME280;54601;51.378;-1.342;2023-02-19T08:29:58;101408.19;;;20.07;34.53
67803;BME280;54601;51.378;-1.342;2023-02-19T08:32:23;101414.96;;;20.21;34.65
67803;BME280;54601;51.378;-1.342;2023-02-19T08:34:48;101417.10;;;20.07;34.49
67803;BME280;54601;51.378;-1.342;2023-02-19T08:37:13;101410.49;;;20.20;34.53
67803;BME280;54601;51.378;-1.342;2023-02-19T08:39:38;101407.43;;;19.98;34.91
67803;BME280;54601;51.378;-1.342;2023-02-19T08:42:04;101405.15;;;19.80;35.17
67803;BME280;54601;51.378;-1.342;2023-02-19T08:44:29;101407.07;;;19.63;35.56
67803;BME280;54601;51.378;-1.342;2023-02-19T08:46:54;101420.15;;;19.76;34.94
67803;BME280;54601;51.378;-1.342;2023-02-19T08:49:19;101429.15;;;19.78;34.76
67803;BME280;54601;51.378;-1.342;2023-02-19T08:51:44;101423.59;;;20.01;34.13
67803;BME280;54601;51.378;-1.342;2023-02-19T08:54:10;101420.63;;;19.97;34.28
67803;BME280;54601;51.378;-1.342;2023-02-19T08:56:35;101422.31;;;20.11;34.09
67803;BME280;54601;51.378;-1.342;2023-02-19T08:59:00;101432.03;;;20.15;33.91
67803;BME280;54601;51.378;-1.342;2023-02-19T09:01:25;101434.95;;;19.99;34.00
67803;BME280;54601;51.378;-1.342;2023-02-19T09:03:52;101440.66;;;20.11;33.81
67803;BME280;54601;51.378;-1.342;2023-02-19T09:06:18;101426.70;;;20.31;33.89
67803;BME280;54601;51.378;-1.342;2023-02-19T09:08:41;101416.90;;;19.71;34.10
67803;BME280;54601;51.378;-1.342;2023-02-19T09:11:06;101417.92;;;19.60;33.94
67803;BME280;54601;51.378;-1.342;2023-02-19T09:13:31;101421.57;;;19.95;33.81
67803;BME280;54601;51.378;-1.342;2023-02-19T09:15:57;101428.51;;;19.80;33.87
67803;BME280;54601;51.378;-1.342;2023-02-19T09:18:22;101434.41;;;20.39;33.39
67803;BME280;54601;51.378;-1.342;2023-02-19T09:20:47;101447.47;;;19.91;33.67
67803;BME280;54601;51.378;-1.342;2023-02-19T09:23:12;101447.18;;;19.76;33.73
67803;BME280;54601;51.378;-1.342;2023-02-19T09:25:37;101438.82;;;19.84;33.62
67803;BME280;54601;51.378;-1.342;2023-02-19T09:28:03;101438.69;;;20.32;33.38
67803;BME280;54601;51.378;-1.342;2023-02-19T09:30:28;101438.05;;;19.44;33.69
67803;BME280;54601;51.378;-1.342;2023-02-19T09:32:53;101448.79;;;19.90;33.41
67803;BME280;54601;51.378;-1.342;2023-02-19T09:35:18;101464.97;;;19.73;33.65
67803;BME280;54601;51.378;-1.342;2023-02-19T09:37:43;101471.98;;;20.04;33.21
67803;BME280;54601;51.378;-1.342;2023-02-19T09:40:09;101475.75;;;20.01;33.19
67803;BME280;54601;51.378;-1.342;2023-02-19T09:42:34;101476.20;;;20.14;32.98
67803;BME280;54601;51.378;-1.342;2023-02-19T09:45:00;101479.56;;;20.52;32.83
67803;BME280;54601;51.378;-1.342;2023-02-19T09:47:26;101469.86;;;20.25;32.85
67803;BME280;54601;51.378;-1.342;2023-02-19T09:49:52;101471.46;;;20.19;32.87
67803;BME280;54601;51.378;-1.342;2023-02-19T09:52:18;101474.51;;;20.35;32.81
67803;BME280;54601;51.378;-1.342;2023-02-19T09:54:40;101484.08;;;20.08;33.18
67803;BME280;54601;51.378;-1.342;2023-02-19T09:57:11;101498.63;;;20.05;33.13
67803;BME280;54601;51.378;-1.342;2023-02-19T09:59:34;101505.38;;;20.08;33.18
67803;BME280;54601;51.378;-1.342;2023-02-19T10:02:00;101503.30;;;20.24;32.85
67803;BME280;54601;51.378;-1.342;2023-02-19T10:04:21;101499.71;;;20.20;32.82
67803;BME280;54601;51.378;-1.342;2023-02-19T10:06:51;101494.01;;;20.21;32.92
67803;BME280;54601;51.378;-1.342;2023-02-19T10:09:18;101496.09;;;20.25;32.85
67803;BME280;54601;51.378;-1.342;2023-02-19T10:11:36;101505.91;;;20.10;32.68
67803;BME280;54601;51.378;-1.342;2023-02-19T10:14:04;101512.38;;;20.42;32.50
67803;BME280;54601;51.378;-1.342;2023-02-19T10:16:27;101513.68;;;19.76;32.75
67803;BME280;54601;51.378;-1.342;2023-02-19T10:18:52;101506.55;;;20.33;32.51
67803;BME280;54601;51.378;-1.342;2023-02-19T10:21:19;101506.02;;;19.91;32.80
67803;BME280;54601;51.378;-1.342;2023-02-19T10:23:43;101505.31;;;20.31;32.72
67803;BME280;54601;51.378;-1.342;2023-02-19T10:26:07;101503.97;;;19.91;32.84
67803;BME280;54601;51.378;-1.342;2023-02-19T10:28:33;101513.08;;;20.13;32.59
67803;BME280;54601;51.378;-1.342;2023-02-19T10:31:00;101522.04;;;20.56;32.26
67803;BME280;54601;51.378;-1.342;2023-02-19T10:33:23;101527.63;;;20.47;32.25
67803;BME280;54601;51.378;-1.342;2023-02-19T10:35:54;101528.69;;;20.24;32.24
67803;BME280;54601;51.378;-1.342;2023-02-19T10:38:16;101527.71;;;20.60;32.16
67803;BME280;54601;51.378;-1.342;2023-02-19T10:40:43;101525.87;;;20.31;32.19
67803;BME280;54601;51.378;-1.342;2023-02-19T10:43:04;101531.97;;;20.52;32.18
67803;BME280;54601;51.378;-1.342;2023-02-19T10:45:33;101526.18;;;20.57;32.01
67803;BME280;54601;51.378;-1.342;2023-02-19T10:47:54;101524.46;;;20.69;31.87
67803;BME280;54601;51.378;-1.342;2023-02-19T10:50:24;101527.73;;;20.79;31.92
67803;BME280;54601;51.378;-1.342;2023-02-19T10:52:50;101523.15;;;20.95;31.59
67803;BME280;54601;51.378;-1.342;2023-02-19T10:55:15;101520.50;;;20.71;31.56
67803;BME280;54601;51.378;-1.342;2023-02-19T10:57:34;101530.85;;;20.46;31.62
67803;BME280;54601;51.378;-1.342;2023-02-19T11:00:05;101533.00;;;20.75;31.63
67803;BME280;54601;51.378;-1.342;2023-02-19T11:02:25;101530.29;;;20.83;31.41
67803;BME280;54601;51.378;-1.342;2023-02-19T11:07:17;101519.58;;;20.43;31.51
67803;BME280;54601;51.378;-1.342;2023-02-19T11:09:43;101520.27;;;20.49;31.46
67803;BME280;54601;51.378;-1.342;2023-02-19T11:12:06;101518.14;;;20.47;31.34
67803;BME280;54601;51.378;-1.342;2023-02-19T11:14:32;101518.02;;;20.68;31.51
67803;BME280;54601;51.378;-1.342;2023-02-19T11:16:57;101524.75;;;20.66;31.44
67803;BME280;54601;51.378;-1.342;2023-02-19T11:19:26;101522.82;;;20.96;31.26
67803;BME280;54601;51.378;-1.342;2023-02-19T11:21:47;101521.80;;;20.64;31.35
67803;BME280;54601;51.378;-1.342;2023-02-19T11:24:21;101516.92;;;20.44;31.48
67803;BME280;54601;51.378;-1.342;2023-02-19T11:26:36;101506.68;;;20.69;31.45
67803;BME280;54601;51.378;-1.342;2023-02-19T11:29:11;101507.75;;;20.56;31.53
67803;BME280;54601;51.378;-1.342;2023-02-19T11:31:28;101511.40;;;20.29;31.74
67803;BME280;54601;51.378;-1.342;2023-02-19T11:33:55;101519.14;;;20.24;31.64
67803;BME280;54601;51.378;-1.342;2023-02-19T11:36:25;101527.58;;;20.18;31.64
67803;BME280;54601;51.378;-1.342;2023-02-19T11:38:42;101521.15;;;19.95;31.88
67803;BME280;54601;51.378;-1.342;2023-02-19T11:41:13;101507.99;;;20.32;31.72
67803;BME280;54601;51.378;-1.342;2023-02-19T11:43:40;101515.12;;;20.12;31.75
67803;BME280;54601;51.378;-1.342;2023-02-19T11:46:03;101517.13;;;20.27;31.58
67803;BME280;54601;51.378;-1.342;2023-02-19T11:48:31;101526.94;;;19.95;31.56
67803;BME280;54601;51.378;-1.342;2023-02-19T11:51:01;101522.02;;;20.34;31.73
67803;BME280;54601;51.378;-1.342;2023-02-19T11:53:20;101512.07;;;20.40;31.60
67803;BME280;54601;51.378;-1.342;2023-02-19T11:55:48;101519.66;;;20.19;31.26
67803;BME280;54601;51.378;-1.342;2023-02-19T11:58:13;101523.88;;;20.60;31.43
67803;BME280;54601;51.378;-1.342;2023-02-19T12:00:30;101531.38;;;19.99;32.17
67803;BME280;54601;51.378;-1.342;2023-02-19T12:03:03;101526.76;;;20.21;31.77
67803;BME280;54601;51.378;-1.342;2023-02-19T12:05:27;101524.57;;;20.14;32.29
67803;BME280;54601;51.378;-1.342;2023-02-19T12:07:54;101518.82;;;19.88;32.31
67803;BME280;54601;51.378;-1.342;2023-02-19T12:10:13;101509.42;;;20.14;32.62
67803;BME280;54601;51.378;-1.342;2023-02-19T12:12:43;101507.30;;;20.29;32.01
67803;BME280;54601;51.378;-1.342;2023-02-19T12:15:12;101501.37;;;20.07;32.28
67803;BME280;54601;51.378;-1.342;2023-02-19T12:17:34;101498.22;;;20.45;32.14
67803;BME280;54601;51.378;-1.342;2023-02-19T12:20:01;101495.90;;;20.73;32.16
67803;BME280;54601;51.378;-1.342;2023-02-19T12:22:26;101488.71;;;20.69;31.92
67803;BME280;54601;51.378;-1.342;2023-02-19T12:24:57;101486.00;;;20.43;32.17
67803;BME280;54601;51.378;-1.342;2023-02-19T12:27:17;101488.31;;;20.46;31.92
67803;BME280;54601;51.378;-1.342;2023-02-19T12:29:43;101483.74;;;20.06;32.37
67803;BME280;54601;51.378;-1.342;2023-02-19T12:32:04;101473.81;;;20.32;32.06
67803;BME280;54601;51.378;-1.342;2023-02-19T12:34:32;101465.14;;;20.50;32.42
67803;BME280;54601;51.378;-1.342;2023-02-19T12:36:53;101458.89;;;20.32;32.37